Beloit, KS (67420)

6:33 AM CDT on August 27, 2014 (GMT -0500)
Center Township | Change Station
CLOSE
Current Station
Personal Weather Station
Location: BELOIT, KS
Elevation: 1504 ft
Nearby Weather Stations

Elev 1504 ft 39.33 °N, 98.15 °W | Updated 5 seconds ago

Mostly Cloudy
Mostly Cloudy
71.6 °F
Feels Like 71.6 °F
N
4.0
Wind Variable Wind from ENE
Gusts 4.0 mph

Today
High -- | Low -- °F
--% Chance of Precip.
Yesterday
High -- | Low -- °F
Precip. -- in
6:56 AM 8:10 PM
Waxing Crescent, 3% visible
Pressure 30.02 in
Visibility 10.0 miles
Clouds Few 8000 ft
Dew Point 69 °F
Humidity 92%
Rainfall 0.00 in
Snow Depth Not available.
UV 0 out of 12
Pollen 5.80 out of 12
Air Quality Not available.
Flu Activity Not available.
METAR KCNK 271055Z AUTO 12003KT 10SM FEW080 21/21 A3006 RMK AO2 LTG DSNT NE-SE RAB08E28 TSB05E20 SLP164 P0001 T02110206

More Conditions Fewer Conditions

Pressure 30.02 in
Visibility 10.0 miles
Clouds Few 8000 ft
Dew Point 69 °F
Humidity 92%
Rainfall 0.00 in
Snow Depth Not available.
UV 0 out of 12
Pollen 5.80 out of 12
Air Quality Not available.
Flu Activity Not available.
METAR KCNK 271055Z AUTO 12003KT 10SM FEW080 21/21 A3006 RMK AO2 LTG DSNT NE-SE RAB08E28 TSB05E20 SLP164 P0001 T02110206

More Conditions Fewer Conditions

10-Day Weather Forecast

Almanac

Astronomy

Aug. 27, 2014 Rise Set
Actual Time 6:56 AM CDT 8:10 PM CDT
Civil Twilight 6:28 AM CDT 8:38 PM CDT
Nautical Twilight 5:55 AM CDT 9:11 PM CDT
Astronomical Twilight 5:20 AM CDT 9:46 PM CDT
Moon 8:52 AM CDT 9:04 PM CDT
Length of Visible Light 14h 10m
Length of Day
13h 14m
Tomorrow will be 2m 26s shorter.
Waxing Crescent, 3% of the Moon is Illuminated
Today
Waxing Crescent
Sep 2
First Quarter
Sep 8
Full
Sep 15
Last Quarter
Sep 24
New

Today's Extremes

State Highs State Lows

Community

WunderPhotos

Upload Photos

1,747,670 photos uploaded!

Nearby

Snow Depth

Station Depth Elevation
No new snow has been reported.

Earthquake Activity

City Distance Mag. Time & Date
No recent earthquake activity has been reported nearby.
Minimum magnitude displayed is 2.5.

Coastal Water Temperatures

Place Temperature
No Stations Reporting

Nearby Weather Stations